Time;durP1;ratioP1;P1;durP2;ratioP2;P2;SDS_P1;SDS_P2;PMS_P1;PMS_P2;Temp;Humidity;BMP_temperature;BMP_pressure;BME280_temperature;BME280_humidity;BME280_pressure;Samples;Min_cycle;Max_cycle;Signal;HPM_P1;HPM_P2
2023/03/09 00:01:54;;;;;;;19.40;9.37;;;;;;;-0.78;100.00;98844.97;5042134;28;20565;-79
2023/03/09 00:04:21;;;;;;;19.03;9.63;;;;;;;-0.80;100.00;98859.69;5058188;28;20040;-78
2023/03/09 00:06:48;;;;;;;18.73;10.80;;;;;;;-0.51;100.00;98863.88;5041142;28;20109;-78
2023/03/09 00:09:18;;;;;;;19.40;9.33;;;;;;;-0.55;100.00;98864.75;5039294;28;20048;-78
2023/03/09 00:11:47;;;;;;;18.83;10.13;;;;;;;-0.60;100.00;98852.66;5025999;28;20025;-78
2023/03/09 00:14:24;;;;;;;20.17;10.00;;;;;;;-0.52;100.00;98844.00;5070628;28;20136;-78
2023/03/09 00:16:51;;;;;;;22.73;11.00;;;;;;;-0.54;100.00;98841.41;5035640;28;20055;-78
2023/03/09 00:19:26;;;;;;;19.67;10.47;;;;;;;-0.63;100.00;98839.72;5060825;28;20032;-78
2023/03/09 00:21:54;;;;;;;17.90;10.50;;;;;;;-0.58;100.00;98835.38;5046803;28;20133;-78
2023/03/09 00:24:26;;;;;;;18.47;9.40;;;;;;;-0.60;100.00;98839.69;5027040;28;20040;-78
2023/03/09 00:26:56;;;;;;;19.20;9.33;;;;;;;-0.73;100.00;98848.41;5039864;28;20036;-79
2023/03/09 00:29:27;;;;;;;19.93;10.27;;;;;;;-0.58;100.00;98848.34;5057848;28;20040;-78
2023/03/09 00:31:54;;;;;;;18.73;9.40;;;;;;;-0.79;100.00;98848.44;5051549;28;20033;-78
2023/03/09 00:34:23;;;;;;;19.97;10.10;;;;;;;-0.72;100.00;98847.53;5021219;28;20045;-78
2023/03/09 00:36:50;;;;;;;16.87;9.80;;;;;;;-0.66;100.00;98846.66;5023286;28;20068;-78
2023/03/09 00:39:17;;;;;;;19.33;9.40;;;;;;;-0.64;100.00;98845.78;5076035;28;20037;-78
2023/03/09 00:41:44;;;;;;;16.27;9.77;;;;;;;-0.60;100.00;98857.00;5041405;28;20037;-78
2023/03/09 00:44:12;;;;;;;16.67;10.33;;;;;;;-0.78;100.00;98852.75;5040783;28;20043;-78
2023/03/09 00:46:39;;;;;;;17.67;10.33;;;;;;;-0.85;100.00;98856.22;5024918;28;20072;-78
2023/03/09 00:49:06;;;;;;;19.37;10.00;;;;;;;-0.80;100.00;98851.03;5024749;28;20048;-78
2023/03/09 00:51:36;;;;;;;18.27;8.97;;;;;;;-0.67;100.00;98845.81;5025842;28;20051;-78
2023/03/09 00:54:03;;;;;;;16.70;9.90;;;;;;;-0.63;100.00;98838.88;5057813;28;20040;-79
2023/03/09 00:56:29;;;;;;;17.03;8.83;;;;;;;-0.69;100.00;98833.69;5040351;28;20067;-78
2023/03/09 00:59:00;;;;;;;21.00;10.70;;;;;;;-0.62;100.00;98832.81;5057603;28;20429;-78
2023/03/09 01:01:27;;;;;;;19.67;9.60;;;;;;;-0.75;100.00;98826.81;5041383;28;20040;-78
2023/03/09 01:03:54;;;;;;;20.83;10.83;;;;;;;-0.71;100.00;98832.84;5025367;28;20443;-80
2023/03/09 01:06:23;;;;;;;21.93;10.37;;;;;;;-0.76;100.00;98835.44;5038706;28;20041;-81
2023/03/09 01:08:49;;;;;;;23.07;10.13;;;;;;;-0.56;100.00;98827.59;5020478;28;20891;-79
2023/03/09 01:11:17;;;;;;;19.67;10.17;;;;;;;-0.68;100.00;98820.72;5039295;28;20047;-80
2023/03/09 01:13:44;;;;;;;20.57;10.67;;;;;;;-0.83;100.00;98815.63;5021288;28;20041;-80
2023/03/09 01:16:11;;;;;;;19.07;9.63;;;;;;;-0.81;100.00;98810.44;5054925;28;20044;-80
2023/03/09 01:18:38;;;;;;;19.57;11.83;;;;;;;-0.76;100.00;98816.44;5038318;28;20121;-80
2023/03/09 01:21:05;;;;;;;22.03;11.17;;;;;;;-0.71;100.00;98815.56;5054886;28;20041;-80
2023/03/09 01:23:33;;;;;;;21.13;11.10;;;;;;;-0.63;100.00;98815.53;5022108;28;20044;-80
2023/03/09 01:26:00;;;;;;;20.13;9.33;;;;;;;-0.71;100.00;98812.09;5017273;28;20056;-80
2023/03/09 01:28:27;;;;;;;22.03;10.00;;;;;;;-0.72;100.00;98805.19;5049736;28;20045;-80
2023/03/09 01:30:54;;;;;;;17.00;9.70;;;;;;;-0.83;100.00;98807.00;5037481;28;20493;-81
2023/03/09 01:33:21;;;;;;;20.17;10.83;;;;;;;-0.63;100.00;98815.53;5018031;28;20052;-80
2023/03/09 01:35:48;;;;;;;17.33;9.57;;;;;;;-0.69;100.00;98820.72;5051932;28;20062;-81
2023/03/09 01:38:15;;;;;;;22.93;10.97;;;;;;;-0.79;100.00;98819.06;5037815;28;20041;-81
2023/03/09 01:40:45;;;;;;;20.17;10.80;;;;;;;-0.86;100.00;98819.06;5017480;28;20048;-81
2023/03/09 01:43:28;;;;;;;18.57;10.37;;;;;;;-0.71;100.00;98814.69;5051824;28;20037;-81
2023/03/09 01:46:39;;;;;;;18.90;10.03;;;;;;;-0.67;100.00;98817.28;5070026;28;20044;-81
2023/03/09 01:49:14;;;;;;;22.50;10.73;;;;;;;-0.76;100.00;98813.84;5051998;28;20040;-80
2023/03/09 01:51:46;;;;;;;19.93;10.13;;;;;;;-0.82;100.00;98811.31;5024669;28;20063;-80
2023/03/09 01:54:19;;;;;;;19.50;11.03;;;;;;;-0.59;100.00;98812.03;5072056;28;20082;-80
2023/03/09 01:56:47;;;;;;;21.30;10.20;;;;;;;-0.70;100.00;98808.63;5053689;28;20044;-80
2023/03/09 01:59:14;;;;;;;18.47;10.53;;;;;;;-0.73;100.00;98809.53;5036372;28;20036;-80
2023/03/09 02:01:41;;;;;;;19.77;10.30;;;;;;;-0.73;100.00;98804.34;5020991;28;20044;-80
2023/03/09 02:04:11;;;;;;;22.37;10.80;;;;;;;-0.78;100.00;98802.63;5036862;28;20032;-80
2023/03/09 02:06:40;;;;;;;23.80;10.57;;;;;;;-0.59;100.00;98806.84;5035059;28;20041;-80
2023/03/09 02:09:25;;;;;;;21.73;10.60;;;;;;;-0.82;100.00;98796.63;5020153;28;20485;-80
2023/03/09 02:11:52;;;;;;;20.57;11.17;;;;;;;-0.61;100.00;98804.25;5001545;28;20049;-80
2023/03/09 02:14:21;;;;;;;21.93;11.50;;;;;;;-0.80;100.00;98802.66;5037132;28;20040;-80
2023/03/09 02:16:48;;;;;;;19.47;10.40;;;;;;;-0.73;100.00;98804.34;5053000;28;20093;-80
2023/03/09 02:19:33;;;;;;;21.93;10.67;;;;;;;-0.69;100.00;98800.84;5020143;28;20467;-80
2023/03/09 02:22:00;;;;;;;18.27;11.20;;;;;;;-0.61;100.00;98801.66;5032975;28;20033;-81
2023/03/09 02:24:33;;;;;;;20.33;10.53;;;;;;;-0.62;100.00;98801.69;5032423;28;20091;-80
2023/03/09 02:27:11;;;;;;;21.65;10.38;;;;;;;-0.68;100.00;98796.53;5019777;28;20032;-80
2023/03/09 02:29:37;;;;;;;21.20;10.57;;;;;;;-0.63;100.00;98787.84;5052825;28;20090;-80
2023/03/09 02:32:04;;;;;;;20.03;10.53;;;;;;;-0.67;100.00;98788.75;5052332;28;20052;-81
2023/03/09 02:34:31;;;;;;;17.80;9.93;;;;;;;-0.68;100.00;98791.34;5034525;28;20047;-80
2023/03/09 02:36:57;;;;;;;19.07;11.13;;;;;;;-0.71;100.00;98789.63;5050689;28;20036;-81
2023/03/09 02:39:37;;;;;;;23.53;10.77;;;;;;;-0.45;100.00;98783.44;5009448;28;20040;-80
2023/03/09 02:42:04;;;;;;;17.60;9.67;;;;;;;-0.44;100.00;98778.22;5053223;28;20404;-80
2023/03/09 02:44:31;;;;;;;24.97;10.77;;;;;;;-0.48;100.00;98773.94;5033057;28;20696;-80
2023/03/09 02:47:02;;;;;;;17.93;10.60;;;;;;;-0.48;100.00;98770.50;5056809;28;20037;-80
2023/03/09 02:49:29;;;;;;;20.00;10.93;;;;;;;-0.71;100.00;98768.88;5016236;28;20075;-80
2023/03/09 02:51:55;;;;;;;22.77;11.17;;;;;;;-0.53;100.00;98770.50;5015356;28;20068;-80
2023/03/09 02:54:22;;;;;;;20.67;10.23;;;;;;;-0.58;100.00;98765.38;5030976;28;20052;-80
2023/03/09 02:56:49;;;;;;;21.27;10.67;;;;;;;-0.49;100.00;98766.19;5019370;28;20052;-80
2023/03/09 02:59:18;;;;;;;17.60;9.77;;;;;;;-0.63;100.00;98774.03;5020298;28;20037;-80
2023/03/09 03:01:45;;;;;;;22.33;11.70;;;;;;;-0.53;100.00;98785.22;5019241;28;20040;-80
2023/03/09 03:04:12;;;;;;;21.67;10.77;;;;;;;-0.66;100.00;98785.28;5047222;28;20055;-81
2023/03/09 03:06:39;;;;;;;25.10;12.00;;;;;;;-0.61;100.00;98775.72;5052668;28;20520;-80
2023/03/09 03:09:06;;;;;;;22.20;11.80;;;;;;;-0.50;100.00;98777.44;5018787;28;20150;-80
2023/03/09 03:11:33;;;;;;;23.87;11.30;;;;;;;-0.53;100.00;98790.41;5017453;28;20040;-80
2023/03/09 03:14:00;;;;;;;21.97;10.90;;;;;;;-0.57;100.00;98785.25;5036482;28;20036;-81
2023/03/09 03:16:28;;;;;;;21.60;11.33;;;;;;;-0.54;100.00;98786.09;5023042;28;20136;-80
2023/03/09 03:18:54;;;;;;;21.17;10.00;;;;;;;-0.65;100.00;98796.53;5052574;28;20098;-80
2023/03/09 03:21:21;;;;;;;19.77;10.97;;;;;;;-0.73;100.00;98790.50;5035844;28;20098;-81
2023/03/09 03:23:48;;;;;;;23.83;11.67;;;;;;;-0.64;100.00;98783.53;5035838;28;20039;-81
2023/03/09 03:26:14;;;;;;;24.83;11.87;;;;;;;-0.41;100.00;98790.34;5019213;28;20709;-81
2023/03/09 03:28:41;;;;;;;21.27;11.53;;;;;;;-0.40;100.00;98794.66;5035852;28;20045;-81
2023/03/09 03:31:09;;;;;;;23.73;10.83;;;;;;;-0.44;100.00;98793.78;5033695;28;20040;-80
2023/03/09 03:33:36;;;;;;;21.47;11.50;;;;;;;-0.48;100.00;98793.84;5044262;28;20576;-81
2023/03/09 03:36:03;;;;;;;21.20;10.43;;;;;;;-0.57;100.00;98790.41;5008898;28;20131;-80
2023/03/09 03:38:30;;;;;;;18.83;10.80;;;;;;;-0.53;100.00;98798.19;5039827;28;20041;-80
2023/03/09 03:40:57;;;;;;;22.20;12.03;;;;;;;-0.57;100.00;98785.25;5023745;28;20087;-80
2023/03/09 03:43:24;;;;;;;22.20;11.97;;;;;;;-0.59;100.00;98789.59;5049433;28;20436;-81
2023/03/09 03:45:50;;;;;;;21.37;11.77;;;;;;;-0.66;100.00;98792.22;5055975;28;20416;-81
2023/03/09 03:48:18;;;;;;;19.27;11.07;;;;;;;-0.53;100.00;98793.00;5039371;28;20746;-80
2023/03/09 03:50:44;;;;;;;20.97;11.13;;;;;;;-0.55;100.00;98786.97;5024140;28;20398;-81
2023/03/09 03:53:11;;;;;;;21.70;12.13;;;;;;;-0.66;100.00;98781.84;5023944;28;20040;-80
2023/03/09 03:55:37;;;;;;;20.67;11.53;;;;;;;-0.58;100.00;98780.94;5023229;28;20055;-80
2023/03/09 03:58:04;;;;;;;22.03;11.47;;;;;;;-0.60;100.00;98774.84;5023101;28;20139;-80
2023/03/09 04:00:31;;;;;;;25.43;11.13;;;;;;;-0.85;100.00;98779.31;5023444;28;20516;-80
2023/03/09 04:03:00;;;;;;;19.53;10.47;;;;;;;-0.75;100.00;98781.88;5039451;28;20119;-81
2023/03/09 04:05:27;;;;;;;21.47;10.87;;;;;;;-0.58;100.00;98777.47;5040137;28;20581;-80
2023/03/09 04:07:54;;;;;;;20.83;11.07;;;;;;;-0.55;100.00;98776.59;5023556;28;20044;-80
2023/03/09 04:10:23;;;;;;;22.87;11.20;;;;;;;-0.58;100.00;98770.56;5039859;28;20401;-80
2023/03/09 04:12:50;;;;;;;20.13;11.43;;;;;;;-0.55;100.00;98776.59;5040228;28;20071;-80
2023/03/09 04:15:17;;;;;;;23.37;11.20;;;;;;;-0.57;100.00;98776.59;5018308;28;20041;-80
2023/03/09 04:17:43;;;;;;;20.53;11.07;;;;;;;-0.49;100.00;98761.84;5039554;28;20044;-80
2023/03/09 04:20:10;;;;;;;22.70;11.87;;;;;;;-0.51;100.00;98773.94;5014619;28;20467;-81
2023/03/09 04:22:37;;;;;;;19.73;11.13;;;;;;;-0.54;100.00;98775.72;5038563;28;20055;-80
2023/03/09 04:25:04;;;;;;;20.30;10.03;;;;;;;-0.65;100.00;98774.03;5049510;28;20148;-79
2023/03/09 04:27:31;;;;;;;22.07;11.30;;;;;;;-0.63;100.00;98769.69;5054595;28;20051;-81
2023/03/09 04:29:57;;;;;;;18.70;10.00;;;;;;;-0.54;100.00;98767.94;5042845;28;20037;-80
2023/03/09 04:32:24;;;;;;;22.53;10.47;;;;;;;-0.65;100.00;98768.84;5019051;28;20099;-80
2023/03/09 04:34:51;;;;;;;23.57;10.70;;;;;;;-0.52;100.00;98767.03;5019237;28;20040;-80
2023/03/09 04:37:18;;;;;;;20.40;10.47;;;;;;;-0.58;100.00;98772.28;5037667;28;20041;-80
2023/03/09 04:39:44;;;;;;;18.57;10.10;;;;;;;-0.54;100.00;98767.94;5038792;28;20044;-80
2023/03/09 04:42:11;;;;;;;23.20;10.33;;;;;;;-0.58;100.00;98773.16;5021359;28;20060;-80
2023/03/09 04:44:37;;;;;;;21.63;12.37;;;;;;;-0.64;100.00;98762.78;5022286;28;20047;-80
2023/03/09 04:47:06;;;;;;;18.53;10.03;;;;;;;-0.54;100.00;98770.53;5020908;28;20102;-80
2023/03/09 04:49:32;;;;;;;20.20;9.27;;;;;;;-0.56;100.00;98765.34;5038970;28;20497;-80
2023/03/09 04:51:59;;;;;;;22.37;11.47;;;;;;;-0.72;100.00;98771.50;5040468;28;20056;-78
2023/03/09 04:54:26;;;;;;;25.20;10.97;;;;;;;-0.64;100.00;98780.94;5040216;28;20029;-78
2023/03/09 04:56:52;;;;;;;21.03;10.67;;;;;;;-0.66;100.00;98772.31;5020851;28;20402;-78
2023/03/09 04:59:19;;;;;;;23.80;11.27;;;;;;;-0.78;100.00;98774.09;5040235;28;20044;-79
2023/03/09 05:01:46;;;;;;;22.00;10.87;;;;;;;-0.60;100.00;98779.19;5039673;28;20063;-79
2023/03/09 05:04:12;;;;;;;20.77;10.23;;;;;;;-0.71;100.00;98784.44;5039524;28;20044;-79
2023/03/09 05:06:39;;;;;;;18.47;10.30;;;;;;;-0.73;100.00;98782.75;5059384;28;20040;-79
2023/03/09 05:09:07;;;;;;;21.27;10.47;;;;;;;-0.76;100.00;98781.00;5021883;28;20040;-79
2023/03/09 05:11:34;;;;;;;22.07;10.87;;;;;;;-0.83;100.00;98791.44;5022120;28;20541;-79
2023/03/09 05:14:00;;;;;;;20.77;10.63;;;;;;;-0.67;100.00;98788.75;5024893;28;20058;-79
2023/03/09 05:16:27;;;;;;;20.17;10.80;;;;;;;-0.69;100.00;98789.63;5056059;28;20041;-79
2023/03/09 05:18:54;;;;;;;24.43;11.03;;;;;;;-0.79;100.00;98791.41;5021723;28;20045;-79
2023/03/09 05:21:21;;;;;;;19.57;10.53;;;;;;;-0.86;100.00;98800.94;5064054;28;20036;-79
2023/03/09 05:23:48;;;;;;;23.50;11.20;;;;;;;-0.73;100.00;98804.34;5073396;23;20070;-82
2023/03/09 05:26:15;;;;;;;20.70;10.97;;;;;;;-0.76;100.00;98801.75;5045863;28;20539;-81
2023/03/09 05:28:41;;;;;;;19.07;9.70;;;;;;;-0.64;100.00;98801.69;5041083;28;20044;-81
2023/03/09 05:31:10;;;;;;;20.23;10.57;;;;;;;-0.71;100.00;98793.94;5034273;28;20041;-81
2023/03/09 05:33:37;;;;;;;26.07;11.83;;;;;;;-0.71;100.00;98791.38;5048785;28;20107;-81
2023/03/09 05:36:14;;;;;;;26.57;11.37;;;;;;;-0.67;100.00;98793.09;5030975;28;20036;-81
2023/03/09 05:38:40;;;;;;;18.67;10.40;;;;;;;-0.71;100.00;98794.81;5042277;28;20044;-81
2023/03/09 05:41:07;;;;;;;24.27;11.53;;;;;;;-0.81;100.00;98808.69;5038606;28;20032;-82
2023/03/09 05:43:35;;;;;;;17.67;11.07;;;;;;;-0.62;100.00;98804.28;5039004;28;20497;-82
2023/03/09 05:46:02;;;;;;;21.87;10.53;;;;;;;-0.70;100.00;98804.31;5060470;28;20385;-81
2023/03/09 05:48:29;;;;;;;24.53;13.10;;;;;;;-0.87;100.00;98804.38;5057775;28;20074;-83
2023/03/09 05:50:59;;;;;;;34.83;11.97;;;;;;;-0.78;100.00;98813.00;5061430;28;20040;-83
2023/03/09 05:53:26;;;;;;;24.23;12.23;;;;;;;-0.81;100.00;98813.88;5042825;28;20040;-83
2023/03/09 05:55:53;;;;;;;26.90;13.43;;;;;;;-0.97;100.00;98818.25;5071485;28;20066;-83
2023/03/09 05:58:19;;;;;;;25.13;12.67;;;;;;;-0.70;100.00;98814.69;5039458;28;20041;-83
2023/03/09 06:00:46;;;;;;;30.73;14.70;;;;;;;-0.88;100.00;98817.38;5022813;28;20053;-83
2023/03/09 06:03:13;;;;;;;24.57;13.37;;;;;;;-0.79;100.00;98813.88;5022917;28;20052;-81
2023/03/09 06:05:40;;;;;;;27.53;13.97;;;;;;;-0.72;100.00;98837.19;5054277;28;20520;-82
2023/03/09 06:08:06;;;;;;;28.70;15.00;;;;;;;-0.67;100.00;98834.56;5021913;28;20098;-82
2023/03/09 06:10:33;;;;;;;29.90;13.87;;;;;;;-0.66;100.00;98839.75;5038714;28;20041;-82
2023/03/09 06:13:00;;;;;;;28.17;13.83;;;;;;;-0.81;100.00;98842.41;5038206;28;20044;-82
2023/03/09 06:15:26;;;;;;;30.87;14.73;;;;;;;-0.67;100.00;98851.00;5036618;28;20084;-82
2023/03/09 06:17:53;;;;;;;31.53;15.47;;;;;;;-0.82;100.00;98855.38;5038712;28;20095;-82
2023/03/09 06:20:20;;;;;;;31.53;15.53;;;;;;;-0.79;100.00;98853.63;5038696;28;20059;-83
2023/03/09 06:22:47;;;;;;;33.13;14.87;;;;;;;-0.83;100.00;98845.88;5071413;28;20044;-82
2023/03/09 06:25:14;;;;;;;31.93;14.97;;;;;;;-0.70;100.00;98847.53;5051890;28;20044;-81
2023/03/09 06:27:41;;;;;;;30.53;15.90;;;;;;;-0.70;100.00;98856.19;5054176;28;20051;-83
2023/03/09 06:30:08;;;;;;;34.50;15.77;;;;;;;-0.55;100.00;98864.75;5037822;28;20074;-81
2023/03/09 06:32:35;;;;;;;28.27;15.83;;;;;;;-0.64;100.00;98865.66;5054267;28;20106;-82
2023/03/09 06:35:02;;;;;;;32.37;16.30;;;;;;;-0.50;100.00;98868.22;5053430;28;20048;-83
2023/03/09 06:37:29;;;;;;;27.87;15.03;;;;;;;-0.56;100.00;98887.25;5053761;28;20048;-83
2023/03/09 06:39:55;;;;;;;32.23;16.10;;;;;;;-0.58;100.00;98894.19;5054172;28;20102;-81
2023/03/09 06:42:22;;;;;;;28.53;14.60;;;;;;;-0.43;100.00;98898.41;5055778;28;20067;-83
2023/03/09 06:44:50;;;;;;;27.37;14.60;;;;;;;-0.40;100.00;98898.41;5039484;28;20512;-82
2023/03/09 06:47:16;;;;;;;27.60;13.80;;;;;;;-0.43;100.00;98893.22;5054764;28;20052;-82
2023/03/09 06:49:43;;;;;;;34.27;15.87;;;;;;;-0.54;100.00;98882.91;5039490;28;20032;-82
2023/03/09 06:52:10;;;;;;;26.63;13.70;;;;;;;-0.46;100.00;98885.47;5055224;28;20045;-82
2023/03/09 06:54:38;;;;;;;30.87;16.40;;;;;;;-0.39;100.00;98888.03;5039977;28;20028;-83
2023/03/09 06:57:05;;;;;;;30.00;15.03;;;;;;;-0.38;100.00;98896.69;5040262;28;20107;-83
2023/03/09 06:59:31;;;;;;;29.67;14.87;;;;;;;-0.29;100.00;98896.63;5039213;28;20122;-82
2023/03/09 07:01:58;;;;;;;28.20;15.07;;;;;;;-0.33;100.00;98903.56;5054931;28;20464;-83
2023/03/09 07:04:25;;;;;;;31.53;15.43;;;;;;;-0.40;100.00;98907.06;5039466;28;20040;-84
2023/03/09 07:06:51;;;;;;;31.03;15.67;;;;;;;-0.34;100.00;98914.81;5035328;28;20450;-83
2023/03/09 07:09:18;;;;;;;29.37;14.30;;;;;;;-0.22;100.00;98921.69;5019071;28;20087;-83
2023/03/09 07:11:46;;;;;;;27.87;16.23;;;;;;;-0.17;100.00;98919.03;5013531;28;20049;-83
2023/03/09 07:14:13;;;;;;;29.03;14.20;;;;;;;-0.38;100.00;98928.66;5022789;28;20386;-83
2023/03/09 07:16:39;;;;;;;28.47;16.00;;;;;;;-0.24;100.00;98935.53;5039704;28;20053;-82
2023/03/09 07:19:06;;;;;;;25.23;12.90;;;;;;;-0.14;100.00;98950.19;5060956;28;20032;-82
2023/03/09 07:21:33;;;;;;;27.23;14.17;;;;;;;-0.26;100.00;98952.81;5038268;28;20044;-83
2023/03/09 07:23:59;;;;;;;22.87;12.83;;;;;;;-0.30;100.00;98960.63;5020538;28;20043;-84
2023/03/09 07:26:27;;;;;;;27.67;14.30;;;;;;;-0.41;100.00;98958.97;5053950;28;20071;-81
2023/03/09 07:28:54;;;;;;;25.47;12.33;;;;;;;-0.25;100.00;98955.44;5043735;28;20410;-83
2023/03/09 07:31:21;;;;;;;24.50;12.87;;;;;;;-0.08;100.00;98945.84;5034774;28;20048;-83
2023/03/09 07:33:48;;;;;;;28.83;14.63;;;;;;;-0.01;100.00;98949.25;5034634;28;20041;-84
2023/03/09 07:36:15;;;;;;;25.33;13.43;;;;;;;0.02;100.00;98961.38;5037669;28;20540;-83
2023/03/09 07:38:41;;;;;;;28.37;12.80;;;;;;;0.10;100.00;98952.66;5021738;28;20052;-83
2023/03/09 07:41:08;;;;;;;28.97;15.10;;;;;;;-0.02;100.00;98971.75;5038491;28;20068;-83
2023/03/09 07:43:43;;;;;;;26.03;14.87;;;;;;;0.06;100.00;98966.50;5038151;28;20048;-83
2023/03/09 07:46:12;;;;;;;29.47;14.10;;;;;;;0.03;100.00;98968.28;5055949;28;20144;-83
2023/03/09 07:48:39;;;;;;;29.47;14.87;;;;;;;0.17;100.00;98975.13;5039193;28;20685;-83
2023/03/09 07:51:06;;;;;;;33.43;15.70;;;;;;;0.14;100.00;98963.88;5038187;28;20045;-83
2023/03/09 07:53:34;;;;;;;28.93;14.97;;;;;;;0.15;100.00;98966.47;5054265;28;20500;-82
2023/03/09 07:56:03;;;;;;;30.47;15.13;;;;;;;0.10;100.00;98977.75;5038278;28;20044;-82
2023/03/09 07:58:31;;;;;;;32.57;17.17;;;;;;;0.13;100.00;98990.72;5023108;28;20048;-82
2023/03/09 08:00:58;;;;;;;32.97;16.93;;;;;;;0.06;100.00;99004.59;5055612;28;20079;-83
2023/03/09 08:03:25;;;;;;;34.30;16.13;;;;;;;-0.02;100.00;99007.22;5039118;28;20045;-83
2023/03/09 08:05:55;;;;;;;31.70;15.27;;;;;;;0.04;100.00;99012.41;5055106;28;20447;-83
2023/03/09 08:08:23;;;;;;;33.37;17.10;;;;;;;0.05;100.00;99014.13;5039043;28;20476;-82
2023/03/09 08:10:50;;;;;;;34.70;17.83;;;;;;;0.09;100.00;99025.38;5038292;28;20041;-82
2023/03/09 08:13:17;;;;;;;34.03;16.90;;;;;;;0.12;100.00;99027.94;5055336;28;20044;-82
2023/03/09 08:15:44;;;;;;;42.00;20.77;;;;;;;0.15;100.00;99021.00;5019720;28;20099;-82
2023/03/09 08:18:12;;;;;;;34.43;17.07;;;;;;;0.19;100.00;99027.91;5040407;28;20489;-82
2023/03/09 08:20:38;;;;;;;34.60;16.07;;;;;;;0.29;100.00;99031.31;5026472;28;20048;-82
2023/03/09 08:23:05;;;;;;;31.27;15.73;;;;;;;0.23;100.00;99034.81;5042757;28;20090;-83
2023/03/09 08:25:33;;;;;;;28.70;13.90;;;;;;;0.38;100.00;99035.59;5041997;28;20048;-82
2023/03/09 08:27:59;;;;;;;28.13;14.37;;;;;;;0.22;100.00;99040.88;5059089;28;20040;-82
2023/03/09 08:30:26;;;;;;;27.63;14.23;;;;;;;0.14;100.00;99036.59;5042777;28;20411;-83
2023/03/09 08:32:54;;;;;;;30.57;16.30;;;;;;;0.30;100.00;99053.81;5059487;28;20471;-83
2023/03/09 08:35:23;;;;;;;32.60;14.90;;;;;;;0.27;100.00;99051.25;5060246;28;20485;-83
2023/03/09 08:37:50;;;;;;;27.80;15.37;;;;;;;0.24;100.00;99053.84;5060350;28;20583;-82
2023/03/09 08:40:17;;;;;;;29.47;15.30;;;;;;;0.30;100.00;99068.53;5044226;28;20060;-82
2023/03/09 08:42:43;;;;;;;29.80;14.27;;;;;;;0.27;100.00;99066.84;5026061;28;20044;-82
2023/03/09 08:45:11;;;;;;;28.73;15.20;;;;;;;0.24;100.00;99072.88;5024397;28;20041;-81
2023/03/09 08:47:38;;;;;;;28.30;15.03;;;;;;;0.20;100.00;99068.59;5040533;28;20095;-81
2023/03/09 08:50:06;;;;;;;26.93;14.43;;;;;;;0.38;100.00;99069.38;5041273;28;20037;-81
2023/03/09 08:52:34;;;;;;;26.00;14.67;;;;;;;0.40;100.00;99065.88;5058282;28;20564;-82
2023/03/09 08:55:02;;;;;;;26.37;14.43;;;;;;;0.24;100.00;99064.22;5040121;28;20039;-82
2023/03/09 08:57:29;;;;;;;29.27;14.87;;;;;;;0.34;100.00;99062.44;5052245;28;20040;-82
2023/03/09 08:59:55;;;;;;;27.73;14.27;;;;;;;0.62;100.00;99052.78;5029369;28;20127;-81
2023/03/09 09:02:23;;;;;;;30.63;15.20;;;;;;;0.64;100.00;99057.09;5046152;28;20044;-81
2023/03/09 09:04:50;;;;;;;25.87;13.40;;;;;;;0.65;100.00;99050.16;5028592;28;20075;-81
2023/03/09 09:07:17;;;;;;;25.83;13.83;;;;;;;0.62;100.00;99052.78;5027930;28;20040;-82
2023/03/09 09:09:44;;;;;;;22.83;12.70;;;;;;;0.78;100.00;99065.66;5056533;28;20124;-81
2023/03/09 09:12:11;;;;;;;26.93;13.23;;;;;;;0.75;100.00;99078.66;5027088;28;20086;-80
2023/03/09 09:14:38;;;;;;;22.83;13.50;;;;;;;1.03;100.00;99081.97;5041825;28;20040;-81
2023/03/09 09:17:08;;;;;;;19.60;10.60;;;;;;;1.01;100.00;99075.03;5059019;28;20036;-82
2023/03/09 09:19:35;;;;;;;25.90;12.80;;;;;;;1.09;100.00;99074.13;5028509;28;20539;-82
2023/03/09 09:22:03;;;;;;;21.20;11.83;;;;;;;1.24;100.00;99080.06;5027763;28;20413;-80
2023/03/09 09:24:32;;;;;;;24.57;11.93;;;;;;;1.20;100.00;99074.03;5020648;28;20382;-81
2023/03/09 09:26:59;;;;;;;23.00;13.00;;;;;;;1.47;100.00;99080.72;5045235;28;20032;-81
2023/03/09 09:29:26;;;;;;;20.60;11.50;;;;;;;1.54;100.00;99089.34;5063539;28;20406;-80
2023/03/09 09:31:53;;;;;;;22.67;11.90;;;;;;;1.63;100.00;99105.75;5079951;28;20052;-80
2023/03/09 09:34:22;;;;;;;18.40;11.17;;;;;;;1.61;100.00;99107.50;5079534;28;20070;-80
2023/03/09 09:36:48;;;;;;;21.20;11.93;;;;;;;1.67;100.00;99107.41;5067778;28;20040;-80
2023/03/09 09:39:15;;;;;;;21.50;11.60;;;;;;;1.19;100.00;99113.94;5044730;28;20044;-80
2023/03/09 09:41:44;;;;;;;21.53;11.80;;;;;;;1.21;100.00;99106.09;5027906;28;20048;-80
2023/03/09 09:44:18;;;;;;;21.47;11.67;;;;;;;1.36;100.00;99108.59;5027428;28;20032;-81
2023/03/09 09:46:46;;;;;;;19.60;11.73;;;;;;;1.42;100.00;99111.97;5023970;28;20041;-80
2023/03/09 09:49:20;;;;;;;19.57;11.67;;;;;;;1.51;100.00;99120.59;5058572;28;20109;-80
2023/03/09 09:52:01;;;;;;;;;;;;;;;1.51;100.00;99125.78;5053433;28;20066;-79
2023/03/09 09:54:38;;;;;;;19.10;9.87;;;;;;;1.29;100.00;99119.91;5045915;28;19920;-80
2023/03/09 09:57:31;;;;;;;18.67;10.67;;;;;;;1.53;100.00;99117.13;5062263;28;20047;-80
2023/03/09 10:00:07;;;;;;;20.07;11.63;;;;;;;1.62;100.00;99129.19;5081294;28;20051;-80
2023/03/09 10:02:56;;;;;;;17.90;10.87;;;;;;;1.42;100.00;99132.78;5042030;28;20044;-80
2023/03/09 10:05:27;;;;;;;19.50;11.20;;;;;;;1.14;100.00;99144.28;5043468;28;20033;-80
2023/03/09 10:07:56;;;;;;;19.50;11.47;;;;;;;1.22;100.00;99144.25;5064107;28;20048;-80
2023/03/09 10:10:27;;;;;;;19.67;10.57;;;;;;;1.19;100.00;99155.53;5049095;28;20107;-81
2023/03/09 10:12:54;;;;;;;20.00;10.87;;;;;;;1.33;100.00;99152.81;5053173;28;20051;-80
2023/03/09 10:15:30;;;;;;;21.23;10.90;;;;;;;1.41;100.00;99149.28;5052125;28;20050;-80
2023/03/09 10:18:05;;;;;;;22.83;11.17;;;;;;;1.28;100.00;99134.66;5051271;28;20049;-81
2023/03/09 10:20:39;;;;;;;16.27;10.17;;;;;;;1.31;100.00;99137.22;5068536;28;20148;-80
2023/03/09 10:23:16;;;;;;;27.45;16.52;;;;;;;1.08;100.00;99147.78;5067730;28;20386;-80
2023/03/09 10:25:43;;;;;;;56.90;28.20;;;;;;;1.07;100.00;99148.66;5067186;28;20063;-81
2023/03/09 10:28:16;;;;;;;41.73;26.13;;;;;;;1.18;100.00;99140.81;5066571;28;20040;-80
2023/03/09 10:30:50;;;;;;;18.40;12.00;;;;;;;1.25;100.00;99139.88;5063614;28;20048;-81
2023/03/09 10:33:19;;;;;;;21.85;11.13;;;;;;;1.43;100.00;99138.91;5063317;28;21959;-80
2023/03/09 10:36:05;;;;;;;20.10;11.40;;;;;;;1.49;100.00;99138.81;5030792;28;20476;-81
2023/03/09 10:38:32;;;;;;;19.03;10.30;;;;;;;1.22;100.00;99144.25;5044747;28;20452;-81
2023/03/09 10:40:59;;;;;;;20.70;11.20;;;;;;;1.32;100.00;99156.31;5039232;28;20057;-81
2023/03/09 10:43:30;;;;;;;19.53;10.97;;;;;;;1.32;100.00;99151.97;5045521;28;20033;-80
2023/03/09 10:46:15;;;;;;;16.80;10.47;;;;;;;1.32;100.00;99153.72;5046638;28;20047;-81
2023/03/09 10:48:43;;;;;;;18.23;9.83;;;;;;;1.24;100.00;99163.31;5064464;28;20408;-79
2023/03/09 10:51:25;;;;;;;19.27;11.03;;;;;;;1.32;100.00;99161.50;5036659;28;20033;-79
2023/03/09 10:53:54;;;;;;;19.53;9.90;;;;;;;1.52;100.00;99182.19;5046351;28;20529;-80
2023/03/09 10:56:25;;;;;;;17.40;9.97;;;;;;;1.39;100.00;99174.47;5064920;28;20519;-80
2023/03/09 10:59:07;;;;;;;19.50;11.23;;;;;;;1.20;100.00;99180.69;5049326;28;20041;-80
2023/03/09 11:01:56;;;;;;;17.70;9.77;;;;;;;1.35;100.00;99185.78;5046168;28;20040;-80
2023/03/09 11:04:28;;;;;;;18.23;9.83;;;;;;;1.37;100.00;99196.19;5057398;28;20036;-79
2023/03/09 11:07:04;;;;;;;14.73;9.23;;;;;;;1.18;100.00;99202.34;5088770;28;20037;-79
2023/03/09 11:09:45;;;;;;;16.00;9.10;;;;;;;1.13;100.00;99205.00;5045903;28;20051;-79
2023/03/09 11:12:20;;;;;;;19.40;10.60;;;;;;;1.08;100.00;99201.53;5062739;28;20083;-79
2023/03/09 11:14:51;;;;;;;16.87;10.47;;;;;;;1.15;100.00;99204.97;5072741;28;20076;-78
2023/03/09 11:17:32;;;;;;;18.07;9.83;;;;;;;1.13;100.00;99216.25;5081339;28;20048;-80
2023/03/09 11:20:23;;;;;;;17.87;10.13;;;;;;;1.16;100.00;99209.31;5056635;28;20040;-79